createdAt,value
2023-03-29T01:51:53.802Z,0
2023-03-29T01:57:03.146Z,0
2023-03-29T02:02:12.160Z,0
2023-03-29T02:07:21.170Z,0
2023-03-29T02:12:30.323Z,0
2023-03-29T02:17:39.680Z,0
2023-03-29T02:22:48.532Z,0
2023-03-29T02:27:56.995Z,0
2023-03-29T03:24:42.425Z,0
2023-03-29T03:29:51.539Z,0
2023-03-29T03:35:00.741Z,0
2023-03-29T03:40:08.552Z,0
2023-03-29T03:45:17.632Z,0
2023-03-29T03:50:26.087Z,0
2023-03-29T03:55:36.538Z,0
2023-03-29T04:00:45.008Z,0
2023-03-29T04:05:54.147Z,0
2023-03-29T04:11:04.919Z,0
2023-03-29T04:16:13.180Z,0
2023-03-29T04:21:21.581Z,0
2023-03-29T04:26:30.597Z,0
2023-03-29T04:31:39.243Z,0
2023-03-29T04:36:47.574Z,0
2023-03-29T04:41:56.029Z,0
2023-03-29T04:47:04.533Z,0
2023-03-29T04:52:13.670Z,0
2023-03-29T04:57:23.152Z,1
2023-03-29T05:02:31.413Z,3
2023-03-29T05:07:40.376Z,5
2023-03-29T05:54:04.985Z,65
2023-03-29T05:59:14.748Z,78
2023-03-29T06:04:23.358Z,86
2023-03-29T06:09:33.013Z,54
2023-03-29T06:14:41.453Z,125
2023-03-29T06:19:51.894Z,152
2023-03-29T06:25:00.976Z,151
2023-03-29T06:30:10.748Z,168
2023-03-29T06:35:19.903Z,152
2023-03-29T07:16:35.559Z,265
2023-03-29T07:21:46.432Z,275
2023-03-29T07:32:04.726Z,307
2023-03-29T07:37:13.801Z,247
2023-03-29T07:42:22.958Z,258
2023-03-29T07:47:32.242Z,343
2023-03-29T07:52:40.523Z,332
2023-03-29T07:57:50.349Z,349
2023-03-29T08:02:58.847Z,313
2023-03-29T08:08:08.513Z,392
2023-03-29T08:13:18.259Z,536
2023-03-29T08:18:28.041Z,621
2023-03-29T08:23:36.536Z,777
2023-03-29T08:28:46.923Z,696
2023-03-29T08:33:56.679Z,616
2023-03-29T08:39:05.812Z,611
2023-03-29T08:44:15.585Z,716
2023-03-29T09:30:41.935Z,495
2023-03-29T09:35:50.081Z,758
2023-03-29T09:40:58.416Z,1098
2023-03-29T09:46:07.905Z,903
2023-03-29T10:16:59.902Z,965
2023-03-29T10:22:08.830Z,1097
2023-03-29T10:27:16.645Z,908
2023-03-29T10:32:25.904Z,622
2023-03-29T10:37:35.535Z,616
2023-03-29T10:42:46.803Z,1108
2023-03-29T10:47:55.887Z,679
2023-03-29T10:53:06.138Z,980
2023-03-29T10:58:16.501Z,977
2023-03-29T11:03:26.096Z,1523
2023-03-29T11:08:34.784Z,1232
2023-03-29T11:13:43.246Z,1010
2023-03-29T11:18:51.706Z,826
2023-03-29T11:24:01.470Z,1102
2023-03-29T11:29:11.220Z,1324
2023-03-29T11:34:19.760Z,2258
2023-03-29T11:39:29.464Z,1433
2023-03-29T11:44:39.263Z,1509
2023-03-29T11:49:14.473Z,1178
2023-03-29T11:54:30.354Z,1243
2023-03-29T11:59:40.381Z,1279
2023-03-29T12:05:01.984Z,1603
2023-03-29T12:10:11.391Z,1499
2023-03-29T12:15:33.178Z,1634
2023-03-29T12:20:48.505Z,1098
2023-03-29T12:26:04.869Z,857
2023-03-29T12:31:20.050Z,844
2023-03-29T16:49:06.131Z,157
2023-03-29T16:54:21.036Z,81
2023-03-29T16:59:37.871Z,59
2023-03-29T17:04:53.049Z,45
2023-03-29T17:10:07.637Z,46
2023-03-29T17:15:23.746Z,63
2023-03-29T17:20:38.576Z,39
2023-03-29T17:25:54.784Z,37
2023-03-29T17:31:10.487Z,36
2023-03-29T17:36:26.550Z,22
2023-03-29T17:41:41.972Z,12
2023-03-29T17:46:58.392Z,9
2023-03-29T17:52:14.288Z,7
2023-03-29T17:57:32.332Z,4
2023-03-29T18:02:48.267Z,1
2023-03-29T18:08:03.451Z,1
2023-03-29T18:13:18.890Z,0
2023-03-29T18:18:34.439Z,0
2023-03-29T18:23:57.211Z,0
2023-03-29T18:29:10.236Z,0
2023-03-29T18:34:22.905Z,0
2023-03-29T18:39:37.810Z,0
2023-03-29T18:44:53.932Z,0
2023-03-29T18:50:08.842Z,0
2023-03-29T18:55:25.633Z,0
2023-03-29T19:00:40.543Z,0
2023-03-29T19:05:56.658Z,0
2023-03-29T19:11:11.603Z,0
2023-03-29T19:16:27.686Z,0
2023-03-29T19:21:41.986Z,0
2023-03-29T19:26:58.101Z,0
2023-03-29T19:32:13.008Z,0
2023-03-29T19:37:27.876Z,0
2023-03-29T19:42:44.026Z,0
2023-03-29T19:48:04.036Z,0
2023-03-29T19:53:13.771Z,0
2023-03-29T19:58:29.940Z,0
2023-03-29T20:03:46.682Z,0
2023-03-29T20:09:00.992Z,0
2023-03-29T20:14:17.810Z,0
2023-03-29T20:19:33.936Z,0
2023-03-29T20:24:50.138Z,0
2023-03-29T20:30:05.009Z,0
2023-03-29T20:35:19.889Z,0
2023-03-29T20:40:34.730Z,0
2023-03-29T20:45:54.916Z,0
2023-03-29T20:51:06.241Z,0
2023-03-29T20:56:21.922Z,0
2023-03-29T21:01:37.009Z,0
2023-03-29T21:06:53.624Z,0
2023-03-29T21:12:09.776Z,0
2023-03-29T21:17:24.840Z,0
2023-03-29T21:22:46.938Z,0
2023-03-29T21:27:57.013Z,0
2023-03-29T21:33:13.152Z,0
2023-03-29T21:38:28.016Z,0
2023-03-29T21:43:43.540Z,0
2023-03-29T21:48:59.704Z,0
2023-03-29T21:54:15.218Z,0
2023-03-29T21:59:31.378Z,0
2023-03-29T22:04:47.547Z,0
2023-03-29T22:10:03.104Z,0
2023-03-29T22:15:18.601Z,0
2023-03-29T22:20:35.424Z,0
2023-03-29T22:25:50.934Z,0
2023-03-29T22:31:07.064Z,0
2023-03-29T22:36:23.223Z,0
2023-03-29T22:41:37.566Z,0
2023-03-29T22:46:53.643Z,0
2023-03-29T22:52:09.776Z,0
2023-03-29T22:57:26.111Z,0
2023-03-29T23:02:41.569Z,0
2023-03-29T23:07:57.019Z,0
2023-03-29T23:13:11.900Z,0
2023-03-29T23:18:29.359Z,0
2023-03-29T23:23:46.112Z,0
2023-03-29T23:29:01.609Z,0
2023-03-29T23:34:17.786Z,0
2023-03-29T23:39:35.893Z,0
2023-03-29T23:44:50.751Z,0
2023-03-29T23:50:06.909Z,0
2023-03-29T23:55:22.046Z,0
